• Join FlightAware (Why Join?)
  • Login
  • US Flag 
10:10AM EST


 

Airport Tracker/Info


-or-


 

Live Flight TrackerFlight Track Log ✈ RPA3321 ✈ 29-Apr-2013 ✈ KALB - KDCA

Flight Track Log - Related Links

Times and Time Zones

All times are in EDT time to prevent confusion due to time zone crossing. See the RPA3321 flight status page for this flight to view local times or setup timezone preferences in your user account.

Time Position Orientation Groundspeed Altitude Reporting Facility
EDT Latitude Longitude Course Direction KTS MPH feet Rate Location/Type
05:41AM 42.7297 -73.8081 119° Southeast 147 169 1,600  Level Boston Center
05:43AM 42.7125 -73.8586 245° Southwest 229 264 3,700 2,280 Climbing Boston Center
05:44AM 42.5153 -74.0095 171° South  Level Estimated
05:44AM 42.7761 -73.9392 317° Northwest 291 335 7,000  Level Boston Center
05:45AM 42.4373 -74.0783 180° South  Level Estimated
05:45AM 42.8186 -74.0308 302° West 297 342 10,600  Level Boston Center
05:46AM 42.3593 -74.1470 172° South  Level Estimated
05:46AM 42.7903 -74.1150 245° Southwest 233 268 13,300  Level Boston Center
05:47AM 42.3139 -74.0371 119° Southeast  Level FlightAware Approximate
05:47AM 42.6989 -74.0900 169° South 212 244 16,300  Level Boston Center
05:48AM 42.6119 -74.0481 160° South 295 339 18,800 2,460 Climbing Boston Center
05:49AM 42.5189 -73.9978 158° South 316 364 21,300 2,280 Climbing Boston Center
05:50AM 42.4236 -73.9475 159° South 355 409 23,400 1,920 Climbing Boston Center
05:51AM 42.3197 -73.9228 170° South 370 426 25,200 1,260 Climbing Boston Center
05:52AM 42.2153 -73.9567 194° South 370 426 26,000 360 Climbing Boston Center
05:53AM 42.1106 -73.9933 195° South 376 433 26,000  Level Boston Center
05:54AM 42.0036 -74.0297 194° South 384 442 26,000  Level Boston Center
05:55AM 41.8992 -74.0606 192° South 389 448 26,000  Level Boston Center
05:57AM 41.7222 -74.1144 193° South 376 433 26,000  Level New York Center
05:58AM 41.6153 -74.1450 192° South 381 438 26,000  Level New York Center
05:59AM 41.5058 -74.1811 194° South 376 433 26,000  Level New York Center
06:00AM 41.4031 -74.2119 193° South 381 438 26,000  Level New York Center
06:01AM 41.2939 -74.2422 192° South 386 444 26,000  Level New York Center
06:02AM 41.1908 -74.2753 194° South 391 450 26,000  Level New York Center
06:03AM 41.0878 -74.3086 194° South 391 450 26,000  Level New York Center
06:04AM 40.9847 -74.3389 193° South 391 450 26,000  Level New York Center
06:05AM 40.8817 -74.3719 194° South 386 444 26,000  Level New York Center
06:06AM 40.7844 -74.4161 199° South 380 437 26,000 -240 Level New York Center
06:07AM 40.7211 -74.5142 230° Southwest 353 406 25,600 -900 Descending New York Center
06:08AM 40.6614 -74.6175 233° Southwest 353 406 24,300 -1,320 Descending New York Center
06:09AM 40.5978 -74.7178 230° Southwest 358 412 23,000 -660 Descending New York Center
06:10AM 40.5339 -74.8178 230° Southwest 363 418 23,000  Level New York Center
06:11AM 40.4661 -74.9094 226° Southwest 363 418 23,000  Level New York Center
06:12AM 40.3981 -75.0033 226° Southwest 358 412 23,000 -540 Level New York Center
06:13AM 40.3303 -75.0972 227° Southwest 358 412 22,000 -540 Descending New York Center
06:14AM 40.2703 -75.1942 231° Southwest 358 412 22,000  Level New York Center
06:15AM 40.2083 -75.2908 230° Southwest 347 399 22,000  Level New York Center
06:16AM 40.1464 -75.3844 229° Southwest 347 399 22,000  Level New York Center
06:17AM 40.0864 -75.4756 229° Southwest 347 399 22,000  Level New York Center
06:18AM 40.0308 -75.5611 230° Southwest 347 399 22,000  Level New York Center
06:19AM 39.9686 -75.6517 228° Southwest 347 399 22,000  Level New York Center
06:20AM 39.9019 -75.7525 229° Southwest 360 414 22,000  Level New York Center
06:21AM 39.8350 -75.8533 229° Southwest 368 423 22,000 -600 Level New York Center
06:22AM 39.7661 -75.9564 229° Southwest 373 429 20,900 -1,740 Descending New York Center
06:24AM 39.6000 -76.2167 230° Southwest 353 406 16,000 -1,860 Descending Potomac TRACON
06:25AM 39.5167 -76.3000 218° Southwest 348 400 14,500 -1,620 Descending Potomac TRACON
06:26AM 39.4500 -76.3833 224° Southwest 348 400 12,700 -1,500 Descending Potomac TRACON
06:27AM 39.3667 -76.4500 212° Southwest 341 392 11,500 -1,260 Descending Potomac TRACON
06:28AM 39.3167 -76.5167 226° Southwest 325 374 10,500 -780 Descending Potomac TRACON
06:29AM 39.2333 -76.5833 212° Southwest 277 319 10,000 -300 Descending Potomac TRACON
06:30AM 39.2000 -76.6333 229° Southwest 281 323 10,000  Level Potomac TRACON
06:31AM 39.1333 -76.7000 218° Southwest 278 320 10,000  Level Potomac TRACON
06:32AM 39.0833 -76.7667 226° Southwest 281 323 10,000 -360 Level Potomac TRACON
06:33AM 39.0333 -76.8500 232° Southwest 282 325 9,400 -1,200 Descending Potomac TRACON
06:34AM 39.0333 -76.9500 270° West 274 315 7,700 -1,680 Descending Potomac TRACON
06:35AM 39.0333 -77.0333 270° West 254 292 6,300 -1,020 Descending Potomac TRACON
06:36AM 39.0500 -77.1167 284° West 249 287 5,800 -600 Descending Potomac TRACON
06:37AM 39.0500 -77.1667 270° West 190 219 5,200 -1,080 Descending Potomac TRACON
06:38AM 39.0167 -77.2000 218° Southwest 158 182 3,700 -1,200 Descending Potomac TRACON
06:39AM 38.9833 -77.1667 142° Southeast 165 190 3,000 -660 Descending Potomac TRACON
06:40AM 38.9500 -77.1333 142° Southeast 163 188 2,500 -660 Descending Potomac TRACON
06:41AM 38.9167 -77.1000 142° Southeast 144 166 1,700 -840 Descending Potomac TRACON